Time;durP1;ratioP1;P1;durP2;ratioP2;P2;SDS_P1;SDS_P2;PMS_P1;PMS_P2;Temp;Humidity;BMP_temperature;BMP_pressure;BME280_temperature;BME280_humidity;BME280_pressure;Samples;Min_cycle;Max_cycle;Signal;HPM_P1;HPM_P2
2023/03/03 00:01:24;;;;;;;4.93;2.90;;;;;0.60;96074.00;;;;5015611;28;20664;-58
2023/03/03 00:03:51;;;;;;;5.83;3.97;;;;;0.70;96074.00;;;;5016146;28;20196;-60
2023/03/03 00:06:19;;;;;;;2.70;2.50;;;;;0.70;96078.00;;;;5015556;28;20660;-59
2023/03/03 00:08:47;;;;;;;3.27;2.97;;;;;0.70;96072.00;;;;5015758;28;20212;-59
2023/03/03 00:11:15;;;;;;;3.00;2.80;;;;;0.80;96074.00;;;;5015685;28;20219;-59
2023/03/03 00:13:47;;;;;;;3.83;3.57;;;;;0.80;96078.00;;;;5015285;28;20197;-60
2023/03/03 00:16:21;;;;;;;4.47;3.60;;;;;0.80;96076.00;;;;5015860;28;20178;-60
2023/03/03 00:18:49;;;;;;;5.20;3.37;;;;;0.80;96086.00;;;;5015432;28;20286;-59
2023/03/03 00:21:28;;;;;;;4.17;3.77;;;;;0.80;96081.00;;;;5015131;28;20193;-59
2023/03/03 00:24:10;;;;;;;2.27;2.17;;;;;0.70;96081.00;;;;5015126;28;20268;-58
2023/03/03 00:26:39;;;;;;;2.90;2.67;;;;;0.70;96075.00;;;;5015266;28;20192;-59
2023/03/03 00:29:28;;;;;;;3.13;2.90;;;;;0.80;96086.00;;;;5015071;28;20220;-59
2023/03/03 00:32:00;;;;;;;2.97;2.70;;;;;0.70;96078.00;;;;5015310;28;20633;-61
2023/03/03 00:34:29;;;;;;;8.33;4.00;;;;;0.70;96081.00;;;;5015080;28;20187;-60
2023/03/03 00:36:58;;;;;;;2.87;2.40;;;;;0.60;96072.00;;;;5015445;28;20208;-59
2023/03/03 00:39:31;;;;;;;5.93;3.57;;;;;0.70;96071.00;;;;5014772;28;20232;-59
2023/03/03 00:41:59;;;;;;;4.97;4.57;;;;;0.60;96076.00;;;;5014912;28;20184;-59
2023/03/03 00:44:41;;;;;;;3.47;3.27;;;;;0.70;96080.00;;;;5014836;28;20205;-59
2023/03/03 00:47:28;;;;;;;2.80;2.70;;;;;0.70;96085.00;;;;5013589;28;20211;-59
2023/03/03 00:50:00;;;;;;;5.40;3.43;;;;;0.60;96077.00;;;;5014574;28;20215;-60
2023/03/03 00:52:28;;;;;;;2.60;2.40;;;;;0.50;96083.00;;;;5014687;28;20188;-59
2023/03/03 00:54:56;;;;;;;5.03;3.50;;;;;0.50;96081.00;;;;5014554;28;20196;-59
2023/03/03 00:57:23;;;;;;;3.30;2.87;;;;;0.40;96084.00;;;;5014742;28;20208;-59
2023/03/03 00:59:52;;;;;;;3.20;3.00;;;;;0.40;96084.00;;;;5014370;28;20223;-59
2023/03/03 01:02:19;;;;;;;2.60;2.50;;;;;0.40;96087.00;;;;5014696;28;20660;-59
2023/03/03 01:04:50;;;;;;;4.20;3.80;;;;;0.40;96074.00;;;;5014654;28;20544;-59
2023/03/03 01:07:18;;;;;;;4.93;3.57;;;;;0.40;96082.00;;;;5014347;28;20180;-58
2023/03/03 01:09:46;;;;;;;4.03;3.73;;;;;0.30;96077.00;;;;5012872;28;20222;-59
2023/03/03 01:12:13;;;;;;;3.97;3.63;;;;;0.30;96077.00;;;;5014257;28;20203;-59
2023/03/03 01:14:41;;;;;;;3.10;2.80;;;;;0.30;96078.00;;;;5014277;28;20248;-60
2023/03/03 01:17:10;;;;;;;4.23;3.90;;;;;0.30;96078.00;;;;5014277;28;20669;-59
2023/03/03 01:19:37;;;;;;;3.57;2.30;;;;;0.20;96078.00;;;;5014512;28;20231;-59
2023/03/03 01:22:05;;;;;;;3.87;3.40;;;;;0.30;96039.00;;;;5012743;28;20677;-59
2023/03/03 01:24:32;;;;;;;3.47;3.27;;;;;0.20;96076.00;;;;5014481;28;20196;-59
2023/03/03 01:26:59;;;;;;;3.73;3.40;;;;;0.30;96078.00;;;;5014010;28;20204;-59
2023/03/03 01:29:27;;;;;;;4.27;3.87;;;;;0.20;96084.00;;;;5013868;28;20211;-59
2023/03/03 01:31:54;;;;;;;4.63;4.20;;;;;0.20;96075.00;;;;5013908;28;20245;-59
2023/03/03 01:34:24;;;;;;;9.57;4.73;;;;;0.20;96076.00;;;;5014177;28;20199;-59
2023/03/03 01:36:51;;;;;;;4.60;4.17;;;;;0.20;96071.00;;;;5013835;28;20198;-59
2023/03/03 01:39:19;;;;;;;2.93;2.57;;;;;0.10;96080.00;;;;5012986;28;20253;-59
2023/03/03 01:41:46;;;;;;;5.93;3.40;;;;;0.10;96075.00;;;;5013761;28;20202;-59
2023/03/03 01:44:15;;;;;;;4.37;3.83;;;;;0.10;96072.00;;;;5013815;28;20200;-58
2023/03/03 01:46:53;;;;;;;4.23;3.83;;;;;0.10;96073.00;;;;5013691;28;20191;-58
2023/03/03 01:49:26;;;;;;;5.83;3.27;;;;;0.10;96085.00;;;;5013673;28;20219;-58
2023/03/03 01:51:58;;;;;;;3.03;2.50;;;;;0.10;96086.00;;;;5013609;28;20193;-59
2023/03/03 01:54:29;;;;;;;4.00;3.60;;;;;0.00;96074.00;;;;5013543;28;20229;-59
2023/03/03 01:57:00;;;;;;;5.27;4.50;;;;;0.00;96076.00;;;;5014291;28;20583;-58
2023/03/03 01:59:31;;;;;;;3.73;3.53;;;;;0.00;96064.00;;;;5013409;28;20253;-59
2023/03/03 02:01:59;;;;;;;3.20;3.00;;;;;-0.20;96065.00;;;;5013563;28;20665;-59
2023/03/03 02:04:28;;;;;;;3.27;3.03;;;;;-0.20;96063.00;;;;5013497;28;20199;-59
2023/03/03 02:07:00;;;;;;;3.70;3.40;;;;;-0.20;96066.00;;;;5013695;28;20605;-59
2023/03/03 02:09:33;;;;;;;4.37;3.43;;;;;-0.20;96058.00;;;;5013959;28;20211;-59
2023/03/03 02:12:06;;;;;;;5.33;2.97;;;;;-0.30;96053.00;;;;5013696;28;20187;-59
2023/03/03 02:14:34;;;;;;;3.77;3.47;;;;;-0.30;96059.00;;;;5013832;28;20191;-60
2023/03/03 02:17:02;;;;;;;5.53;4.20;;;;;-0.30;96056.00;;;;5013300;28;20675;-59
2023/03/03 02:19:43;;;;;;;4.30;3.90;;;;;-0.40;96063.00;;;;5013156;28;20223;-59
2023/03/03 02:22:11;;;;;;;6.33;4.63;;;;;-0.40;96048.00;;;;5013557;28;20194;-59
2023/03/03 02:24:45;;;;;;;7.47;3.13;;;;;-0.40;96043.00;;;;5013237;28;20201;-59
2023/03/03 02:27:14;;;;;;;3.10;2.90;;;;;-0.30;96045.00;;;;5013360;28;20186;-59
2023/03/03 02:29:41;;;;;;;4.33;4.03;;;;;-0.30;96043.00;;;;5013275;28;20218;-59
2023/03/03 02:32:08;;;;;;;5.13;4.43;;;;;-0.40;96037.00;;;;5013627;28;20197;-59
2023/03/03 02:34:50;;;;;;;4.13;3.33;;;;;-0.50;96044.00;;;;5013143;28;20257;-59
2023/03/03 02:37:19;;;;;;;5.70;4.97;;;;;-0.50;96047.00;;;;5013674;28;20195;-59
2023/03/03 02:39:46;;;;;;;5.37;4.20;;;;;-0.50;96043.00;;;;5011836;28;20703;-59
2023/03/03 02:42:20;;;;;;;5.50;4.43;;;;;-0.60;96048.00;;;;5013037;28;20678;-59
2023/03/03 02:44:48;;;;;;;5.50;4.00;;;;;-0.60;96052.00;;;;5013331;28;20192;-59
2023/03/03 02:47:16;;;;;;;4.23;3.90;;;;;-0.60;96044.00;;;;5013041;28;20198;-59
2023/03/03 02:49:44;;;;;;;4.63;4.33;;;;;-0.70;96043.00;;;;5011892;28;20226;-59
2023/03/03 02:52:13;;;;;;;4.37;4.07;;;;;-0.70;96045.00;;;;5015582;28;20226;-59
2023/03/03 02:54:41;;;;;;;3.73;3.33;;;;;-0.60;96052.00;;;;5016949;28;20199;-59
2023/03/03 02:57:08;;;;;;;4.17;3.77;;;;;-0.60;96046.00;;;;5017069;28;20202;-59
2023/03/03 02:59:37;;;;;;;4.43;4.07;;;;;-0.70;96060.00;;;;5016650;28;20218;-59
2023/03/03 03:02:06;;;;;;;4.90;4.50;;;;;-0.70;96056.00;;;;5016884;28;20561;-59
2023/03/03 03:04:33;;;;;;;6.67;5.37;;;;;-0.70;96054.00;;;;5017195;28;20191;-59
2023/03/03 03:07:00;;;;;;;4.77;3.47;;;;;-0.80;96049.00;;;;5016661;28;20677;-60
2023/03/03 03:09:28;;;;;;;4.07;2.57;;;;;-0.70;96054.00;;;;5016534;28;20219;-59
2023/03/03 03:11:55;;;;;;;3.60;3.00;;;;;-0.70;96057.00;;;;5016736;28;20201;-60
2023/03/03 03:14:23;;;;;;;4.00;3.53;;;;;-0.70;96054.00;;;;5016535;28;20276;-59
2023/03/03 03:16:52;;;;;;;4.37;4.07;;;;;-0.80;96053.00;;;;5016495;28;20202;-59
2023/03/03 03:19:19;;;;;;;6.03;4.00;;;;;-0.90;96066.00;;;;5014950;28;20237;-60
2023/03/03 03:21:47;;;;;;;6.23;3.47;;;;;-0.90;96066.00;;;;5017118;28;20194;-60
2023/03/03 03:24:14;;;;;;;6.60;3.87;;;;;-0.90;96060.00;;;;5016632;28;20565;-59
2023/03/03 03:26:42;;;;;;;3.27;3.03;;;;;-0.90;96063.00;;;;5016399;28;20595;-58
2023/03/03 03:29:09;;;;;;;3.77;3.43;;;;;-0.90;96065.00;;;;5016183;28;20247;-59
2023/03/03 03:31:38;;;;;;;3.17;2.97;;;;;-0.90;96065.00;;;;5016101;28;20204;-59
2023/03/03 03:34:06;;;;;;;3.57;3.27;;;;;-1.10;96061.00;;;;5016060;28;20559;-58
2023/03/03 03:36:34;;;;;;;3.40;3.20;;;;;-1.00;96069.00;;;;5016321;28;20198;-59
2023/03/03 03:39:05;;;;;;;9.97;4.77;;;;;-1.00;96070.00;;;;5015960;28;20624;-58
2023/03/03 03:41:32;;;;;;;4.87;3.73;;;;;-0.90;96066.00;;;;5016514;28;20170;-58
2023/03/03 03:43:59;;;;;;;4.47;4.13;;;;;-0.90;96052.00;;;;5015759;28;20206;-58
2023/03/03 03:46:27;;;;;;;5.47;4.97;;;;;-0.90;96070.00;;;;5016135;28;20549;-58
2023/03/03 03:48:54;;;;;;;5.80;3.57;;;;;-0.90;96071.00;;;;5036720;22;20373;-66
2023/03/03 03:51:23;;;;;;;5.23;4.00;;;;;-0.80;96064.00;;;;5076071;28;20226;-66
2023/03/03 03:53:50;;;;;;;3.60;3.27;;;;;-0.70;96057.00;;;;5075540;28;20197;-67
2023/03/03 03:56:18;;;;;;;6.60;4.90;;;;;-0.70;96070.00;;;;5075614;28;20200;-67
2023/03/03 03:58:45;;;;;;;3.73;3.43;;;;;-0.70;96070.00;;;;5075663;28;20284;-67
2023/03/03 04:01:13;;;;;;;3.03;2.83;;;;;-0.70;96061.00;;;;5075444;28;20220;-67
2023/03/03 04:03:40;;;;;;;3.73;3.37;;;;;-0.50;96062.00;;;;5074731;28;20265;-67
2023/03/03 04:06:08;;;;;;;5.53;3.43;;;;;-0.60;96066.00;;;;5075830;28;20263;-67
2023/03/03 04:08:37;;;;;;;3.20;3.00;;;;;-0.70;96064.00;;;;5075232;28;20197;-68
2023/03/03 04:11:04;;;;;;;6.30;5.33;;;;;-0.60;96065.00;;;;5075243;28;20197;-68
2023/03/03 04:13:33;;;;;;;3.20;2.77;;;;;-0.50;96062.00;;;;5075190;28;20199;-68
2023/03/03 04:16:01;;;;;;;4.47;4.07;;;;;-0.50;96063.00;;;;5075169;28;20301;-68
2023/03/03 04:18:28;;;;;;;3.30;3.10;;;;;-0.40;96060.00;;;;5075087;28;20195;-67
2023/03/03 04:20:56;;;;;;;4.90;4.13;;;;;-0.40;96065.00;;;;5075014;28;20216;-68
2023/03/03 04:23:23;;;;;;;3.77;2.57;;;;;-0.50;96061.00;;;;5074979;28;20191;-68
2023/03/03 04:25:52;;;;;;;4.87;3.40;;;;;-0.50;96062.00;;;;5075245;28;20192;-68
2023/03/03 04:28:20;;;;;;;2.50;2.30;;;;;-0.40;96061.00;;;;5075404;28;20192;-68
2023/03/03 04:30:48;;;;;;;4.07;3.77;;;;;-0.40;96053.00;;;;5075353;28;20287;-67
2023/03/03 04:33:15;;;;;;;4.33;3.93;;;;;-0.40;96059.00;;;;5075098;28;20242;-68
2023/03/03 04:35:42;;;;;;;3.93;3.07;;;;;-0.40;96065.00;;;;5074723;28;20191;-67
2023/03/03 04:38:10;;;;;;;5.03;3.37;;;;;-0.40;96067.00;;;;5075013;28;20675;-67
2023/03/03 04:40:40;;;;;;;3.43;3.10;;;;;-0.50;96060.00;;;;5074820;28;20224;-67
2023/03/03 04:43:09;;;;;;;3.63;2.73;;;;;-0.30;96066.00;;;;5056807;28;20242;-67
2023/03/03 04:45:36;;;;;;;2.03;1.93;;;;;-0.30;96065.00;;;;5074769;28;20194;-67
2023/03/03 04:48:04;;;;;;;3.93;3.13;;;;;-0.30;96062.00;;;;5074783;28;20250;-67
2023/03/03 04:50:32;;;;;;;5.80;4.47;;;;;-0.30;96070.00;;;;5074337;28;20719;-68
2023/03/03 04:52:59;;;;;;;3.70;3.40;;;;;-0.20;96063.00;;;;5056438;28;20210;-67
2023/03/03 04:55:26;;;;;;;2.80;2.60;;;;;-0.20;96067.00;;;;5074888;28;20525;-68
2023/03/03 04:57:54;;;;;;;7.53;4.13;;;;;-0.30;96067.00;;;;5074591;28;20193;-67
2023/03/03 05:00:23;;;;;;;4.93;4.43;;;;;-0.20;96065.00;;;;5074092;28;20216;-67
2023/03/03 05:02:50;;;;;;;4.17;3.77;;;;;-0.20;96070.00;;;;5074169;28;20193;-67
2023/03/03 05:05:18;;;;;;;4.77;4.37;;;;;-0.20;96075.00;;;;5074158;28;20198;-68
2023/03/03 05:07:45;;;;;;;3.77;2.07;;;;;-0.20;96072.00;;;;5074217;28;20194;-67
2023/03/03 05:10:13;;;;;;;4.23;3.90;;;;;-0.10;96068.00;;;;5074067;28;20217;-68
2023/03/03 05:12:40;;;;;;;4.80;3.80;;;;;-0.10;96079.00;;;;5074165;28;20559;-67
2023/03/03 05:15:08;;;;;;;11.27;4.93;;;;;0.00;96072.00;;;;5073815;28;20671;-68
2023/03/03 05:17:37;;;;;;;6.00;4.43;;;;;-0.10;96078.00;;;;5073968;28;20193;-68
2023/03/03 05:20:07;;;;;;;2.73;2.53;;;;;-0.30;96081.00;;;;5073732;28;20227;-68
2023/03/03 05:22:34;;;;;;;5.80;3.87;;;;;-0.30;96083.00;;;;5074122;28;20502;-68
2023/03/03 05:25:02;;;;;;;4.70;4.30;;;;;-0.20;96089.00;;;;5074056;28;20552;-68
2023/03/03 05:27:29;;;;;;;5.63;4.83;;;;;-0.30;96092.00;;;;5073789;28;20190;-68
2023/03/03 05:29:57;;;;;;;8.07;5.57;;;;;-0.20;96096.00;;;;5074093;28;20218;-67
2023/03/03 05:32:24;;;;;;;3.63;3.43;;;;;-0.20;96081.00;;;;5073917;28;20646;-68
2023/03/03 05:34:53;;;;;;;2.57;2.37;;;;;-0.20;96085.00;;;;5073534;28;20193;-68
2023/03/03 05:37:20;;;;;;;8.40;4.23;;;;;-0.30;96084.00;;;;5073546;28;20197;-68
2023/03/03 05:39:48;;;;;;;2.20;2.10;;;;;-0.40;96068.00;;;;5073183;28;20215;-68
2023/03/03 05:42:15;;;;;;;3.37;3.07;;;;;-0.40;96080.00;;;;5074227;28;20589;-68
2023/03/03 05:44:43;;;;;;;4.03;3.13;;;;;-0.30;96088.00;;;;5073706;28;20199;-68
2023/03/03 05:47:11;;;;;;;19.97;4.33;;;;;-0.30;96096.00;;;;5073395;28;20216;-68
2023/03/03 05:49:38;;;;;;;4.07;3.77;;;;;-0.30;96089.00;;;;5073465;28;20220;-68
2023/03/03 05:52:07;;;;;;;5.13;2.50;;;;;-0.30;96098.00;;;;5073456;28;20192;-68
2023/03/03 05:54:36;;;;;;;4.20;3.80;;;;;-0.20;96094.00;;;;5073644;28;20206;-68
2023/03/03 05:57:03;;;;;;;3.97;3.67;;;;;-0.30;96100.00;;;;5073415;28;20198;-68
2023/03/03 05:59:31;;;;;;;6.77;3.87;;;;;-0.20;96101.00;;;;5073173;28;20696;-68
2023/03/03 06:01:58;;;;;;;4.47;3.83;;;;;-0.20;96102.00;;;;5073204;28;20213;-68
2023/03/03 06:04:26;;;;;;;4.67;4.27;;;;;-0.10;96097.00;;;;5073766;28;20243;-67
2023/03/03 06:06:53;;;;;;;7.13;4.27;;;;;-0.10;96104.00;;;;5073485;28;20252;-68
2023/03/03 06:09:22;;;;;;;5.17;4.73;;;;;-0.10;96099.00;;;;5073194;28;20232;-68
2023/03/03 06:11:51;;;;;;;7.30;4.43;;;;;-0.10;96102.00;;;;5073200;28;20190;-68
2023/03/03 06:14:19;;;;;;;5.40;4.83;;;;;-0.10;96118.00;;;;5073359;28;20202;-69
2023/03/03 06:16:47;;;;;;;6.07;4.90;;;;;-0.10;96115.00;;;;5073044;28;20204;-68
2023/03/03 06:19:15;;;;;;;3.83;3.53;;;;;-0.20;96108.00;;;;5072844;28;20223;-68
2023/03/03 06:21:43;;;;;;;4.83;4.03;;;;;-0.20;96108.00;;;;5072881;28;20227;-69
2023/03/03 06:24:10;;;;;;;3.23;2.63;;;;;-0.10;96125.00;;;;5073176;28;20661;-68
2023/03/03 06:26:39;;;;;;;4.50;3.33;;;;;-0.10;96124.00;;;;5072781;28;20205;-67
2023/03/03 06:29:06;;;;;;;3.80;3.50;;;;;-0.20;96121.00;;;;5073038;28;20217;-68
2023/03/03 06:31:34;;;;;;;4.00;3.57;;;;;-0.20;96124.00;;;;5073064;28;20267;-67
2023/03/03 06:34:02;;;;;;;2.43;2.23;;;;;-0.10;96128.00;;;;5073165;28;20220;-68
2023/03/03 06:36:29;;;;;;;3.50;3.20;;;;;-0.10;96127.00;;;;5073341;28;20194;-67
2023/03/03 06:38:56;;;;;;;3.53;2.90;;;;;-0.10;96140.00;;;;5073444;28;20221;-68
2023/03/03 06:41:24;;;;;;;3.90;3.10;;;;;-0.20;96131.00;;;;5072977;28;20213;-67
2023/03/03 06:43:53;;;;;;;4.67;3.77;;;;;-0.10;96140.00;;;;5073073;28;20200;-67
2023/03/03 06:46:20;;;;;;;2.83;2.63;;;;;0.00;96150.00;;;;5054825;28;20198;-67
2023/03/03 06:48:48;;;;;;;4.73;4.33;;;;;0.10;96140.00;;;;5072767;28;20201;-67
2023/03/03 06:51:23;;;;;;;4.10;3.63;;;;;0.10;96151.00;;;;5073287;28;20225;-68
2023/03/03 06:53:52;;;;;;;6.10;4.43;;;;;0.20;96152.00;;;;5073078;28;20582;-68
2023/03/03 06:56:20;;;;;;;6.17;3.13;;;;;0.20;96154.00;;;;5072859;28;20574;-68
2023/03/03 06:58:47;;;;;;;3.37;2.73;;;;;0.30;96155.00;;;;5072551;28;20201;-69
2023/03/03 07:01:17;;;;;;;17.00;9.27;;;;;0.30;96160.00;;;;5072778;28;20221;-68
2023/03/03 07:03:45;;;;;;;6.37;5.60;;;;;0.80;96158.00;;;;5072823;28;20198;-68
2023/03/03 07:06:22;;;;;;;4.53;3.70;;;;;1.10;96171.00;;;;5072612;28;20198;-68
2023/03/03 07:08:49;;;;;;;6.83;4.23;;;;;1.20;96165.00;;;;5072775;28;20193;-68
2023/03/03 07:11:20;;;;;;;4.90;4.40;;;;;1.10;96175.00;;;;5072502;28;20186;-68
2023/03/03 07:13:50;;;;;;;4.57;4.10;;;;;1.20;96164.00;;;;5073100;28;20232;-68
2023/03/03 07:16:23;;;;;;;3.90;3.60;;;;;1.40;96183.00;;;;5072613;28;20202;-68
2023/03/03 07:18:53;;;;;;;3.70;3.20;;;;;1.40;96179.00;;;;5054351;28;20222;-68
2023/03/03 07:21:23;;;;;;;3.27;3.00;;;;;1.50;96176.00;;;;5071507;28;20207;-70
2023/03/03 07:23:53;;;;;;;9.13;6.03;;;;;1.40;96177.00;;;;5064275;28;20226;-67
2023/03/03 07:26:25;;;;;;;4.13;3.83;;;;;1.20;96170.00;;;;5068514;28;20209;-68
2023/03/03 07:28:55;;;;;;;3.93;3.13;;;;;1.00;96179.00;;;;5070349;28;20218;-68
2023/03/03 07:31:34;;;;;;;7.33;5.33;;;;;0.90;96177.00;;;;5070460;28;20217;-67
2023/03/03 07:34:04;;;;;;;3.97;3.63;;;;;1.00;96187.00;;;;5070634;28;20198;-69
2023/03/03 07:36:37;;;;;;;2.63;2.43;;;;;1.00;96181.00;;;;5070462;28;20194;-67
2023/03/03 07:39:19;;;;;;;6.00;3.80;;;;;0.90;96179.00;;;;5072268;28;20253;-69
2023/03/03 07:41:47;;;;;;;4.00;3.70;;;;;0.70;96183.00;;;;5073584;28;20214;-68
2023/03/03 07:44:20;;;;;;;2.73;2.53;;;;;0.80;96194.00;;;;5074057;28;20699;-68
2023/03/03 07:46:50;;;;;;;5.00;3.47;;;;;0.80;96185.00;;;;5073030;28;20190;-69
2023/03/03 07:49:23;;;;;;;4.10;3.80;;;;;0.90;96190.00;;;;5073652;28;20222;-68
2023/03/03 07:51:56;;;;;;;3.57;3.30;;;;;0.90;96168.00;;;;5073075;28;20240;-69
2023/03/03 07:54:33;;;;;;;4.10;3.77;;;;;1.10;96195.00;;;;5055850;28;20206;-69
2023/03/03 07:57:13;;;;;;;3.53;3.23;;;;;1.10;96192.00;;;;5073413;28;20190;-69
2023/03/03 07:59:47;;;;;;;3.30;2.97;;;;;1.10;96199.00;;;;5073276;28;20225;-68
2023/03/03 08:02:36;;;;;;;5.10;4.60;;;;;1.30;96192.00;;;;5072484;28;20288;-69
2023/03/03 08:05:28;;;;;;;5.00;3.10;;;;;1.40;96193.00;;;;5073747;28;20202;-69
2023/03/03 08:08:02;;;;;;;3.17;2.80;;;;;1.50;96203.00;;;;5072221;28;20198;-69
2023/03/03 08:10:36;;;;;;;4.33;3.97;;;;;1.60;96199.00;;;;5072995;28;20222;-68
2023/03/03 08:13:16;;;;;;;3.60;2.80;;;;;1.70;96206.00;;;;5072755;28;20194;-69
2023/03/03 08:15:44;;;;;;;4.40;4.00;;;;;1.80;96199.00;;;;5073027;28;20197;-68
2023/03/03 08:18:23;;;;;;;3.43;3.23;;;;;1.80;96202.00;;;;5070944;28;20206;-67
2023/03/03 08:20:52;;;;;;;7.73;4.97;;;;;1.90;96205.00;;;;5073042;28;20709;-68
2023/03/03 08:23:21;;;;;;;2.97;2.80;;;;;2.00;96203.00;;;;5072640;28;20205;-68
2023/03/03 08:25:50;;;;;;;3.03;2.60;;;;;1.90;96187.00;;;;5073163;28;20203;-69
2023/03/03 08:28:18;;;;;;;3.47;3.17;;;;;2.00;96193.00;;;;5072889;28;20205;-68
2023/03/03 08:30:46;;;;;;;3.67;3.47;;;;;2.10;96196.00;;;;5072789;28;20215;-68
2023/03/03 08:33:15;;;;;;;3.67;3.33;;;;;2.10;96199.00;;;;5072789;28;20198;-69
2023/03/03 08:35:43;;;;;;;6.17;4.13;;;;;2.30;96195.00;;;;5072850;28;20250;-68
2023/03/03 08:38:11;;;;;;;4.60;4.00;;;;;2.30;96204.00;;;;5072603;28;20195;-68
2023/03/03 08:40:39;;;;;;;2.57;2.37;;;;;2.20;96207.00;;;;5072377;28;20698;-68
2023/03/03 08:43:07;;;;;;;3.33;3.13;;;;;2.40;96204.00;;;;5072509;28;20207;-68
2023/03/03 08:45:35;;;;;;;4.77;4.17;;;;;2.40;96199.00;;;;5072671;28;20203;-68
2023/03/03 08:48:03;;;;;;;4.43;4.00;;;;;2.60;96208.00;;;;5072012;28;20210;-68
2023/03/03 08:50:31;;;;;;;5.80;3.73;;;;;2.80;96190.00;;;;5072227;28;20757;-68
2023/03/03 08:52:59;;;;;;;3.80;3.43;;;;;2.90;96196.00;;;;5071348;28;20194;-69
2023/03/03 08:55:27;;;;;;;3.63;3.33;;;;;3.10;96192.00;;;;5072281;28;20191;-68
2023/03/03 08:57:54;;;;;;;3.73;3.43;;;;;3.10;96191.00;;;;5072338;28;20199;-68
2023/03/03 09:00:22;;;;;;;4.20;3.90;;;;;3.20;96208.00;;;;5072115;28;20210;-68
2023/03/03 09:02:50;;;;;;;4.93;3.67;;;;;3.30;96195.00;;;;5072088;28;20215;-68
2023/03/03 09:05:19;;;;;;;6.17;3.70;;;;;3.40;96191.00;;;;5054305;28;20671;-68
2023/03/03 09:07:50;;;;;;;4.03;3.73;;;;;3.50;96194.00;;;;5072453;28;20225;-68
2023/03/03 09:10:21;;;;;;;3.53;2.93;;;;;3.60;96197.00;;;;5070531;28;20250;-68
2023/03/03 09:12:49;;;;;;;3.23;2.80;;;;;3.70;96194.00;;;;5071908;28;20195;-69
2023/03/03 09:15:22;;;;;;;4.30;3.90;;;;;4.00;96193.00;;;;5071910;28;20195;-68
2023/03/03 09:17:50;;;;;;;4.97;4.50;;;;;4.20;96197.00;;;;5071867;28;20275;-69
2023/03/03 09:20:36;;;;;;;2.87;2.67;;;;;4.30;96213.00;;;;5071652;28;20222;-68
2023/03/03 09:23:33;;;;;;;4.03;3.70;;;;;4.70;96216.00;;;;5070969;28;20235;-67
2023/03/03 09:26:25;;;;;;;5.30;4.90;;;;;5.00;96217.00;;;;5071702;28;20557;-68
2023/03/03 09:28:53;;;;;;;6.17;4.20;;;;;5.20;96218.00;;;;5053630;28;20245;-67
2023/03/03 09:31:26;;;;;;;4.93;4.53;;;;;5.00;96218.00;;;;5071568;28;20199;-67
2023/03/03 09:33:56;;;;;;;5.07;4.57;;;;;5.20;96217.00;;;;5067253;28;20187;-67
2023/03/03 09:36:27;;;;;;;3.83;3.37;;;;;5.30;96233.00;;;;5071520;28;20238;-67
2023/03/03 09:38:57;;;;;;;4.70;4.30;;;;;5.60;96221.00;;;;5070267;28;20230;-67
2023/03/03 09:42:05;;;;;;;3.87;3.57;;;;;5.60;96228.00;;;;5071389;28;20211;-67
2023/03/03 09:45:10;;;;;;;4.17;3.60;;;;;5.70;96227.00;;;;5054860;28;20263;-67
2023/03/03 09:47:54;;;;;;;7.30;3.97;;;;;5.60;96230.00;;;;5053804;28;20680;-67
2023/03/03 09:50:33;;;;;;;5.70;4.00;;;;;5.80;96221.00;;;;5071143;28;20343;-68
2023/03/03 09:53:11;;;;;;;3.57;3.27;;;;;5.90;96221.00;;;;5071683;28;20681;-67
2023/03/03 09:55:50;;;;;;;4.53;3.57;;;;;5.80;96231.00;;;;5071323;28;20205;-68
2023/03/03 09:58:44;;;;;;;5.10;4.70;;;;;6.00;96229.00;;;;5071193;28;20191;-68
2023/03/03 10:01:38;;;;;;;3.30;3.10;;;;;6.10;96237.00;;;;5070335;28;20226;-68
2023/03/03 10:04:29;;;;;;;5.57;4.97;;;;;6.40;96227.00;;;;5059657;28;20380;-68
2023/03/03 10:07:10;;;;;;;14.90;4.67;;;;;6.20;96222.00;;;;5070819;28;20194;-68
2023/03/03 10:09:56;;;;;;;6.50;4.80;;;;;6.60;96220.00;;;;5070252;28;20214;-68
2023/03/03 10:12:31;;;;;;;3.07;2.57;;;;;7.20;96220.00;;;;5071419;28;20664;-68
2023/03/03 10:15:16;;;;;;;7.43;4.63;;;;;7.20;96227.00;;;;5070031;28;20183;-68
2023/03/03 10:17:51;;;;;;;8.50;5.83;;;;;7.30;96234.00;;;;5070420;28;20568;-68
2023/03/03 10:20:37;;;;;;;2.63;2.53;;;;;7.30;96227.00;;;;5070198;28;20225;-68
2023/03/03 10:23:19;;;;;;;3.77;3.13;;;;;7.70;96233.00;;;;5066662;28;20230;-68
2023/03/03 10:26:01;;;;;;;3.90;3.60;;;;;7.90;96229.00;;;;5071158;28;20602;-68
2023/03/03 10:29:04;;;;;;;3.47;3.17;;;;;8.00;96240.00;;;;5066584;28;20188;-68
2023/03/03 10:31:44;;;;;;;3.97;3.03;;;;;7.90;96241.00;;;;5070862;28;20681;-68
2023/03/03 10:34:26;;;;;;;5.97;3.73;;;;;8.00;96231.00;;;;5070925;28;20194;-69
2023/03/03 10:37:01;;;;;;;8.43;4.97;;;;;8.20;96240.00;;;;5071339;28;20190;-67
2023/03/03 10:39:43;;;;;;;3.80;2.97;;;;;8.30;96231.00;;;;5070601;28;20894;-68
2023/03/03 10:42:22;;;;;;;4.57;4.20;;;;;8.70;96238.00;;;;5071144;28;20212;-66
2023/03/03 10:45:26;;;;;;;3.80;3.17;;;9.30;41.50;8.90;96235.00;;;;5070784;28;20241;-66
2023/03/03 10:48:22;;;;;;;3.60;3.30;;;9.40;40.50;9.00;96231.00;;;;5070594;28;20195;-69
2023/03/03 10:50:56;;;;;;;4.40;4.00;;;;;9.30;96240.00;;;;5070543;28;20219;-69
2023/03/03 10:53:31;;;;;;;6.07;3.23;;;;;9.50;96232.00;;;;5070433;28;20266;-69
2023/03/03 10:56:12;;;;;;;11.50;3.13;;;;;9.60;96230.00;;;;5071313;28;20270;-69
2023/03/03 10:58:46;;;;;;;4.17;3.87;;;;;9.50;96231.00;;;;5070695;28;20218;-68
2023/03/03 11:01:27;;;;;;;3.87;3.53;;;10.10;38.20;9.80;96245.00;;;;5052670;28;20203;-68
2023/03/03 11:04:44;;;;;;;3.77;3.57;;;10.30;38.80;9.80;96228.00;;;;5069175;28;20719;-68
2023/03/03 11:07:18;;;;;;;4.00;3.77;;;;;9.90;96216.00;;;;5062189;28;20214;-68
2023/03/03 11:10:25;;;;;;;5.97;5.47;;;10.70;36.60;10.40;96219.00;;;;5070506;28;20239;-68
2023/03/03 11:13:10;;;;;;;4.60;4.30;;;10.80;37.10;10.80;96236.00;;;;5047163;28;20214;-69
2023/03/03 11:15:48;;;;;;;4.67;4.20;;;;;10.70;96233.00;;;;5073654;28;20183;-68
2023/03/03 11:18:32;;;;;;;8.47;3.93;;;;;10.70;96232.00;;;;5073461;28;20723;-68
2023/03/03 11:21:09;;;;;;;4.10;3.80;;;;;10.40;96228.00;;;;5074856;28;20530;-68
2023/03/03 11:24:04;;;;;;;3.53;3.23;;;;;10.80;96216.00;;;;5073782;28;20285;-68
2023/03/03 11:26:58;;;;;;;3.10;2.90;;;11.30;35.90;11.20;96235.00;;;;5074109;28;20200;-68
2023/03/03 11:29:55;;;;;;;20.07;4.73;;;11.60;34.60;11.00;96239.00;;;;5073910;28;20239;-68
2023/03/03 11:32:35;;;;;;;2.83;2.63;;;11.60;34.60;10.90;96208.00;;;;5070186;28;20192;-68
2023/03/03 11:35:23;;;;;;;4.83;4.43;;;11.50;34.70;11.00;96231.00;;;;5073116;28;20194;-68
2023/03/03 11:38:06;;;;;;;8.43;3.80;;;11.50;34.30;11.10;96227.00;;;;5069960;28;20184;-66
2023/03/03 11:40:47;;;;;;;3.50;3.20;;;11.60;34.10;11.30;96234.00;;;;5074093;28;20215;-67
2023/03/03 11:43:22;;;;;;;4.23;3.93;;;11.80;33.00;11.50;96235.00;;;;5073616;28;20206;-67
2023/03/03 11:45:55;;;;;;;3.17;2.97;;;12.00;33.40;11.30;96230.00;;;;5074042;28;20254;-67
2023/03/03 11:48:44;;;;;;;4.87;4.47;;;11.80;33.70;11.50;96227.00;;;;5073690;28;20194;-67
2023/03/03 11:51:22;;;;;;;10.47;4.40;;;12.00;33.50;11.70;96234.00;;;;5073572;28;20187;-67
2023/03/03 11:54:00;;;;;;;4.33;3.60;;;12.20;33.00;11.50;96235.00;;;;5073541;28;20191;-67
2023/03/03 11:56:36;;;;;;;4.57;3.97;;;12.00;33.30;11.70;96232.00;;;;5073431;28;20219;-67
2023/03/03 11:59:32;;;;;;;2.73;2.53;;;12.20;32.70;11.60;96231.00;;;;5073237;28;20618;-68
2023/03/03 12:02:10;;;;;;;4.37;3.93;;;12.20;32.00;11.20;96229.00;;;;5072144;28;20230;-67
2023/03/03 12:04:44;;;;;;;2.93;2.70;;;12.00;32.50;11.10;96227.00;;;;5073652;28;20210;-67
2023/03/03 12:07:31;;;;;;;4.37;3.97;;;11.80;32.80;10.70;96216.00;;;;5073359;28;20176;-67
2023/03/03 12:10:23;;;;;;;7.33;4.50;;;11.60;33.30;11.10;96207.00;;;;5073096;28;20215;-67
2023/03/03 12:13:02;;;;;;;3.50;2.90;;;11.60;34.60;11.40;96207.00;;;;5071324;28;20179;-67
2023/03/03 12:15:41;;;;;;;3.60;3.30;;;11.90;34.30;11.60;96203.00;;;;5072827;28;20183;-67
2023/03/03 12:18:34;;;;;;;3.57;2.73;;;12.00;33.00;11.90;96193.00;;;;5055068;28;20201;-68
2023/03/03 12:21:18;;;;;;;4.10;3.60;;;12.20;32.70;12.60;96194.00;;;;5072963;28;20492;-67
2023/03/03 12:24:12;;;;;;;10.00;4.43;;;12.80;31.20;12.50;96195.00;;;;5072014;28;20211;-67
2023/03/03 12:26:52;;;;;;;3.90;2.97;;;12.90;30.30;12.80;96193.00;;;;5072892;28;20659;-68
2023/03/03 12:29:29;;;;;;;3.90;3.37;;;13.20;30.60;13.10;96188.00;;;;5071915;28;20611;-71
2023/03/03 12:32:13;;;;;;;4.03;3.63;;;13.40;29.00;13.10;96200.00;;;;5073113;28;20545;-70
2023/03/03 12:34:52;;;;;;;3.70;3.40;;;13.50;28.60;12.80;96191.00;;;;5072750;28;20298;-68
2023/03/03 12:37:50;;;;;;;5.37;4.90;;;13.40;28.40;12.90;96198.00;;;;5072681;28;20252;-69
2023/03/03 12:40:23;;;;;;;4.63;3.67;;;13.40;29.00;12.70;96191.00;;;;5071660;28;20215;-72